Time;durP1;ratioP1;P1;durP2;ratioP2;P2;SDS_P1;SDS_P2;PMS_P1;PMS_P2;Temp;Humidity;BMP_temperature;BMP_pressure;BME280_temperature;BME280_humidity;BME280_pressure;Samples;Min_cycle;Max_cycle;Signal;HPM_P1;HPM_P2
2022/04/02 00:00:13;;;;;;;2.20;1.20;;;;;;;4.12;87.00;96599.86;104816;1271;62510;-25
2022/04/02 00:02:43;;;;;;;2.00;1.20;;;;;;;4.00;87.84;96587.09;104739;1271;75599;-25
2022/04/02 00:05:14;;;;;;;2.30;1.00;;;;;;;3.74;89.18;96573.55;104736;1271;75913;-25
2022/04/02 00:07:44;;;;;;;2.70;1.00;;;;;;;3.90;88.56;96551.31;105018;1272;74304;-25
2022/04/02 00:10:13;;;;;;;1.90;1.30;;;;;;;4.05;87.96;96549.40;105137;1271;61115;-25
2022/04/02 00:12:43;;;;;;;2.80;1.40;;;;;;;3.95;88.27;96550.79;105144;1271;61834;-24
2022/04/02 00:15:13;;;;;;;1.90;1.00;;;;;;;3.84;88.97;96553.73;105152;1271;74529;-24
2022/04/02 00:17:42;;;;;;;2.50;1.00;;;;;;;3.86;88.78;96557.45;104846;1272;76024;-24
2022/04/02 00:20:11;;;;;;;2.10;1.00;;;;;;;4.07;88.10;96561.34;104836;1271;74077;-24
2022/04/02 00:25:33;;;;;;;2.30;1.10;;;;;;;3.95;88.22;96566.92;104842;1271;61202;-25
2022/04/02 00:28:03;;;;;;;4.00;1.00;;;;;;;3.73;88.95;96561.58;104905;1271;75366;-24
2022/04/02 00:30:32;;;;;;;1.10;0.90;;;;;;;4.07;88.15;96558.80;104845;1271;74089;-24
2022/04/02 00:33:01;;;;;;;0.60;0.50;;;;;;;4.19;87.06;96559.02;104887;1271;74412;-24
2022/04/02 00:35:30;;;;;;;1.00;0.80;;;;;;;4.00;87.83;96559.79;104917;1271;61198;-24
2022/04/02 00:38:00;;;;;;;1.40;1.00;;;;;;;4.05;88.04;96565.69;104834;1271;61188;-24
2022/04/02 00:40:30;;;;;;;0.90;0.70;;;;;;;4.04;87.84;96571.64;104946;1271;75507;-24
2022/04/02 00:42:59;;;;;;;1.90;0.90;;;;;;;4.27;86.69;96574.90;104800;1271;75034;-24
2022/04/02 00:45:28;;;;;;;1.00;0.80;;;;;;;4.47;85.48;96578.52;104907;1271;73432;-24
2022/04/02 00:48:18;;;;;;;0.80;0.50;;;;;;;4.24;85.67;96571.77;104746;1271;62614;-24
2022/04/02 00:50:52;;;;;;;1.20;0.80;;;;;;;4.11;86.61;96574.44;104668;1274;60971;-24
2022/04/02 00:53:22;;;;;;;1.20;0.70;;;;;;;3.98;87.11;96574.23;104783;1271;74533;-24
2022/04/02 00:55:56;;;;;;;1.00;0.40;;;;;;;4.17;86.40;96571.27;104826;1271;76007;-24
2022/04/02 00:58:25;;;;;;;2.50;0.50;;;;;;;4.54;84.91;96569.86;104787;1272;74856;-24
2022/04/02 01:00:55;;;;;;;0.70;0.50;;;;;;;4.59;84.56;96565.20;104651;1274;62660;-24
2022/04/02 01:03:27;;;;;;;1.00;0.70;;;;;;;4.20;85.71;96560.46;104996;1271;61746;-24
2022/04/02 01:05:57;;;;;;;1.20;0.70;;;;;;;3.84;87.27;96554.05;104778;1272;75548;-24
2022/04/02 01:08:31;;;;;;;1.70;0.80;;;;;;;3.81;87.96;96555.07;104837;1269;77628;-24
2022/04/02 01:11:01;;;;;;;1.00;0.70;;;;;;;4.32;86.33;96559.48;104882;1271;72275;-24
2022/04/02 01:13:36;;;;;;;2.00;0.90;;;;;;;4.41;85.09;96553.13;105061;1271;61938;-24
2022/04/02 01:16:08;;;;;;;1.80;0.90;;;;;;;4.20;85.94;96547.44;104787;1271;61092;-24
2022/04/02 01:18:43;;;;;;;1.40;0.80;;;;;;;3.84;87.55;96539.70;104820;1271;75514;-24
2022/04/02 01:21:16;;;;;;;1.50;0.60;;;;;;;3.90;88.14;96539.89;104901;1271;76123;-24
2022/04/02 01:23:47;;;;;;;0.70;0.60;;;;;;;4.19;86.57;96533.80;104899;1271;75236;-24
2022/04/02 01:26:18;;;;;;;0.80;0.70;;;;;;;4.43;85.32;96531.83;104828;1271;61099;-24
2022/04/02 01:28:54;;;;;;;0.70;0.60;;;;;;;4.23;85.68;96525.01;104632;1274;63401;-24
2022/04/02 01:31:33;;;;;;;1.30;1.00;;;;;;;4.14;86.48;96521.77;104821;1271;75545;-24
2022/04/02 01:34:03;;;;;;;1.50;0.80;;;;;;;3.83;87.71;96529.25;104740;1271;75080;-24
2022/04/02 01:36:32;;;;;;;2.10;0.80;;;;;;;3.97;87.96;96541.39;104883;1271;74438;-24
2022/04/02 01:39:22;;;;;;;2.20;1.40;;;;;;;4.47;85.08;96548.09;104952;1271;61077;-24
2022/04/02 01:41:52;;;;;;;0.70;0.60;;;;;;;4.36;85.23;96548.64;104881;1271;61783;-24
2022/04/02 01:44:26;;;;;;;;;;;;;;;4.01;86.60;96542.23;105047;1271;75623;-24
2022/04/02 01:46:55;;;;;;;0.50;0.40;;;;;;;3.85;87.79;96535.77;105208;1271;76004;-24
2022/04/02 01:49:24;;;;;;;0.60;0.60;;;;;;;4.06;86.88;96532.13;104927;1271;72958;-24
2022/04/02 01:51:55;;;;;;;1.50;0.70;;;;;;;4.09;86.37;96530.80;105002;1271;61128;-24
2022/04/02 01:54:24;;;;;;;1.40;0.70;;;;;;;4.23;86.21;96538.45;105147;1271;62173;-24
2022/04/02 01:57:03;;;;;;;3.90;1.50;;;;;;;4.01;86.30;96547.67;105154;1271;75588;-24
2022/04/02 01:59:33;;;;;;;1.60;1.00;;;;;;;3.71;87.87;96544.78;105112;1271;76038;-24
2022/04/02 02:02:04;;;;;;;2.30;1.00;;;;;;;3.70;87.89;96542.50;104930;1271;73388;-24
2022/04/02 02:04:34;;;;;;;0.70;0.60;;;;;;;4.31;85.94;96540.01;104656;1271;61171;-24
2022/04/02 02:07:04;;;;;;;0.90;0.60;;;;;;;4.14;85.71;96538.20;104808;1271;62265;-24
2022/04/02 02:09:34;;;;;;;1.40;0.90;;;;;;;3.84;86.98;96536.08;104694;1271;74492;-24
2022/04/02 02:12:36;;;;;;;3.40;1.40;;;;;;;3.72;88.10;96541.80;104513;1271;75887;-24
2022/04/02 02:15:18;;;;;;;2.50;1.20;;;;;;;4.02;87.04;96552.27;104903;1271;73981;-24
2022/04/02 02:18:00;;;;;;;1.50;0.80;;;;;;;4.22;85.74;96550.67;104860;1272;62053;-24
2022/04/02 02:20:31;;;;;;;0.50;0.40;;;;;;;4.41;84.68;96554.67;104847;1271;61168;-24
2022/04/02 02:23:00;;;;;;;0.90;0.70;;;;;;;3.99;85.87;96552.64;104839;1271;75553;-24
2022/04/02 02:25:30;;;;;;;0.70;0.40;;;;;;;3.69;87.62;96544.64;104838;1271;74845;-25
2022/04/02 02:28:00;;;;;;;0.60;0.40;;;;;;;3.94;87.01;96539.27;104774;1271;76042;-24
2022/04/02 02:30:31;;;;;;;1.50;0.60;;;;;;;4.59;84.49;96542.70;104757;1271;61099;-24
2022/04/02 02:35:54;;;;;;;3.80;0.50;;;;;;;4.28;84.88;96540.82;104901;1271;74555;-24
2022/04/02 02:38:45;;;;;;;0.60;0.40;;;;;;;3.87;86.77;96539.89;104858;1271;75892;-24
2022/04/02 02:41:21;;;;;;;1.00;0.50;;;;;;;3.93;86.63;96533.46;104775;1272;74143;-24
2022/04/02 02:43:54;;;;;;;0.70;0.70;;;;;;;4.15;86.03;96539.36;104805;1271;62024;-24
2022/04/02 02:46:44;;;;;;;1.80;0.70;;;;;;;4.17;85.78;96543.48;104919;1271;61006;-24
2022/04/02 02:49:20;;;;;;;1.00;0.60;;;;;;;3.97;86.24;96542.57;104918;1271;75534;-24
2022/04/02 02:51:52;;;;;;;1.60;0.70;;;;;;;3.68;87.43;96545.79;104935;1271;75735;-24
2022/04/02 02:54:25;;;;;;;0.60;0.60;;;;;;;4.10;86.60;96544.45;104901;1271;74160;-24
2022/04/02 02:56:57;;;;;;;1.30;0.70;;;;;;;4.46;84.63;96546.73;104830;1271;62458;-24
2022/04/02 02:59:26;;;;;;;1.20;0.90;;;;;;;4.61;83.69;96542.05;104991;1271;61150;-24
2022/04/02 03:01:57;;;;;;;1.00;0.70;;;;;;;4.24;84.84;96533.64;105090;1271;74526;-24
2022/04/02 03:04:27;;;;;;;1.60;1.00;;;;;;;3.91;86.56;96532.86;104916;1274;75000;-24
2022/04/02 03:07:00;;;;;;;1.20;0.80;;;;;;;3.69;87.54;96536.27;104905;1274;74244;-24
2022/04/02 03:09:32;;;;;;;1.10;0.80;;;;;;;3.93;86.96;96532.63;104887;1271;61842;-24
2022/04/02 03:12:02;;;;;;;3.00;1.50;;;;;;;4.30;85.43;96530.48;104821;1271;61124;-24
2022/04/02 03:14:32;;;;;;;3.90;2.70;;;;;;;3.97;86.13;96529.35;104794;1271;75772;-24
2022/04/02 03:17:21;;;;;;;68.40;26.80;;;;;;;3.57;88.21;96529.50;104918;1271;77104;-24
2022/04/02 03:19:51;;;;;;;7.00;3.50;;;;;;;3.56;88.85;96535.21;104933;1271;73227;-24
2022/04/02 03:22:27;;;;;;;21.80;8.10;;;;;;;3.98;86.94;96536.14;104858;1271;62202;-24
2022/04/02 03:24:57;;;;;;;6.30;2.80;;;;;;;4.15;85.69;96532.80;104920;1271;61021;-24
2022/04/02 03:27:27;;;;;;;5.80;3.40;;;;;;;4.18;85.40;96527.89;104903;1271;75527;-24
2022/04/02 03:29:56;;;;;;;6.50;4.30;;;;;;;3.84;86.61;96526.42;104827;1271;76339;-24
2022/04/02 03:32:26;;;;;;;3.40;1.70;;;;;;;3.88;87.15;96533.33;104940;1271;74229;-23
2022/04/02 03:34:55;;;;;;;1.20;1.00;;;;;;;3.87;87.04;96531.11;104847;1274;62490;-23
2022/04/02 03:37:25;;;;;;;3.40;2.00;;;;;;;4.30;85.76;96527.96;104972;1271;61040;-23
2022/04/02 03:39:54;;;;;;;1.10;0.90;;;;;;;4.71;83.46;96526.89;104928;1271;74507;-24
2022/04/02 03:42:23;;;;;;;1.00;0.90;;;;;;;4.48;83.94;96521.23;104785;1271;76177;-23
2022/04/02 03:44:54;;;;;;;3.50;1.30;;;;;;;4.37;84.35;96519.52;104910;1271;74418;-23
2022/04/02 03:47:26;;;;;;;3.00;1.00;;;;;;;3.98;85.77;96522.52;104893;1271;61137;-23
2022/04/02 03:49:55;;;;;;;0.90;0.70;;;;;;;3.77;87.21;96523.48;104848;1272;61142;-23
2022/04/02 03:52:38;;;;;;;1.90;1.00;;;;;;;3.90;86.76;96520.01;104841;1271;75759;-23
2022/04/02 03:55:11;;;;;;;2.80;2.00;;;;;;;4.08;85.51;96521.42;104923;1271;76004;-24
2022/04/02 03:57:41;;;;;;;1.20;1.00;;;;;;;4.13;85.62;96523.52;104932;1271;71660;-25
2022/04/02 04:00:11;;;;;;;2.50;1.10;;;;;;;3.98;85.88;96527.48;104941;1271;61818;-25
2022/04/02 04:02:46;;;;;;;1.80;1.30;;;;;;;3.91;86.25;96531.47;104766;1271;61110;-24
2022/04/02 04:05:21;;;;;;;1.80;1.20;;;;;;;3.81;86.91;96530.20;104721;1271;74505;-28
2022/04/02 04:07:50;;;;;;;3.30;2.40;;;;;;;4.34;85.02;96531.35;104652;1274;76005;-24
2022/04/02 04:10:20;;;;;;;1.90;1.50;;;;;;;4.49;84.00;96530.25;104721;1271;301397;-25
2022/04/02 04:12:52;;;;;;;4.10;3.10;;;;;;;4.20;84.62;96531.27;104825;1271;61293;-24
2022/04/02 04:15:26;;;;;;;4.40;2.90;;;;;;;4.00;85.88;96537.35;104797;1271;61204;-26
2022/04/02 04:17:57;;;;;;;4.70;3.40;;;;;;;3.91;86.38;96540.36;104944;1271;74420;-24
2022/04/02 04:20:27;;;;;;;4.00;2.90;;;;;;;4.15;85.52;96540.16;104920;1271;75984;-24
2022/04/02 04:22:57;;;;;;;1.70;1.20;;;;;;;4.41;83.95;96541.06;104984;1271;74523;-24
2022/04/02 04:25:28;;;;;;;4.30;2.80;;;;;;;4.45;83.56;96542.15;105008;1271;61879;-24
2022/04/02 04:28:01;;;;;;;2.50;2.10;;;;;;;4.22;84.51;96549.67;104909;1271;61173;-24
2022/04/02 04:30:31;;;;;;;1.40;0.60;;;;;;;3.96;85.66;96552.63;104630;1274;75625;-24
2022/04/02 04:33:02;;;;;;;1.20;1.00;;;;;;;3.63;86.88;96558.40;104907;1271;76111;-24
2022/04/02 04:35:32;;;;;;;1.50;0.90;;;;;;;3.93;86.34;96556.48;104886;1271;74628;-23
2022/04/02 04:38:03;;;;;;;0.60;0.60;;;;;;;4.16;85.13;96559.50;104769;1271;61809;-24
2022/04/02 04:40:33;;;;;;;0.60;0.60;;;;;;;4.11;84.97;96558.07;104946;1271;61969;-24
2022/04/02 04:43:03;;;;;;;2.00;0.90;;;;;;;4.03;85.77;96559.89;104919;1271;75574;-24
2022/04/02 04:45:37;;;;;;;1.90;1.40;;;;;;;3.82;86.20;96561.77;105010;1271;75423;-24
2022/04/02 04:48:07;;;;;;;1.80;1.30;;;;;;;3.89;86.42;96564.75;104913;1271;74557;-25
2022/04/02 04:50:47;;;;;;;1.30;1.00;;;;;;;4.16;84.79;96566.67;104876;1271;61504;-24
2022/04/02 04:53:16;;;;;;;1.80;1.00;;;;;;;3.95;85.60;96562.87;104924;1270;62033;-24
2022/04/02 04:55:46;;;;;;;1.10;0.90;;;;;;;3.87;86.04;96557.73;104907;1271;75600;-24
2022/04/02 04:58:18;;;;;;;3.00;1.90;;;;;;;3.68;86.61;96561.91;104834;1274;75832;-24
2022/04/02 05:00:49;;;;;;;2.70;1.70;;;;;;;3.53;87.57;96561.50;104840;1271;73317;-24
2022/04/02 05:03:18;;;;;;;1.50;1.00;;;;;;;3.76;86.95;96562.06;104817;1272;62137;-24
2022/04/02 05:05:52;;;;;;;4.40;2.70;;;;;;;4.04;85.65;96570.55;104862;1271;61361;-24
2022/04/02 05:08:23;;;;;;;3.30;1.90;;;;;;;3.86;86.20;96566.78;104776;1271;75798;-24
2022/04/02 05:10:54;;;;;;;3.10;2.10;;;;;;;3.67;86.71;96570.22;104813;1271;76068;-23
2022/04/02 05:13:29;;;;;;;2.40;1.40;;;;;;;3.19;88.76;96570.61;104743;1271;74520;-24
2022/04/02 05:15:59;;;;;;;2.20;1.30;;;;;;;3.73;87.31;96572.23;104894;1271;61997;-24
2022/04/02 05:18:29;;;;;;;3.20;1.70;;;;;;;3.87;85.54;96573.17;104864;1271;62078;-24
2022/04/02 05:20:58;;;;;;;4.20;0.80;;;;;;;3.51;86.60;96571.55;104765;1274;76451;-23
2022/04/02 05:23:48;;;;;;;1.80;1.10;;;;;;;3.37;87.45;96575.52;104770;1271;76288;-23
2022/04/02 05:26:19;;;;;;;3.50;2.70;;;;;;;3.28;88.00;96582.86;104914;1271;74231;-24
2022/04/02 05:28:56;;;;;;;3.40;1.50;;;;;;;3.64;87.13;96587.69;105049;1271;61235;-23
2022/04/02 05:31:46;;;;;;;1.50;1.00;;;;;;;3.89;85.70;96586.26;104872;1271;63278;-23
2022/04/02 05:35:59;;;;;;;1.60;1.10;;;;;;;3.55;86.54;96583.54;101768;1309;601640;-22
2022/04/02 05:38:30;;;;;;;1.50;1.00;;;;;;;3.16;88.70;96578.23;104304;1287;61966;-22
2022/04/02 05:40:59;;;;;;;1.70;0.70;;;;;;;3.47;88.10;96579.92;103941;1287;61585;-22
2022/04/02 05:43:29;;;;;;;2.20;1.20;;;;;;;3.74;86.07;96580.20;104369;1283;73693;-22
2022/04/02 05:45:59;;;;;;;1.90;1.30;;;;;;;3.57;86.56;96583.01;103949;1284;76212;-22
2022/04/02 05:48:29;;;;;;;2.20;1.40;;;;;;;3.38;87.10;96586.23;104099;1284;349633;-26
2022/04/02 05:50:59;;;;;;;3.30;1.70;;;;;;;3.23;87.98;96583.70;104000;1284;61165;-22
2022/04/02 05:53:28;;;;;;;4.20;2.60;;;;;;;3.37;87.61;96583.23;104493;1284;61073;-22
2022/04/02 05:55:58;;;;;;;4.20;2.20;;;;;;;3.53;86.93;96583.69;104887;1275;74107;-22
2022/04/02 05:58:28;;;;;;;6.80;3.50;;;;;;;3.62;87.02;96585.96;104939;1274;75270;-22
2022/04/02 06:00:58;;;;;;;3.80;2.00;;;;;;;3.43;87.53;96586.96;104726;1275;73435;-23
2022/04/02 06:03:28;;;;;;;1.10;0.80;;;;;;;3.54;87.60;96590.12;104805;1274;61655;-22
2022/04/02 06:05:57;;;;;;;2.20;1.30;;;;;;;3.76;86.24;96590.02;104788;1274;61069;-23
2022/04/02 06:08:26;;;;;;;7.70;2.00;;;;;;;3.99;85.20;96590.83;104860;1274;74827;-22
2022/04/02 06:10:56;;;;;;;3.50;1.20;;;;;;;3.74;85.31;96596.02;104732;1274;76045;-24
2022/04/02 06:13:25;;;;;;;10.60;6.70;;;;;;;3.82;86.08;96596.85;104859;1274;73947;-24
2022/04/02 06:15:57;;;;;;;98.10;54.70;;;;;;;3.65;85.91;96598.33;104625;1274;61181;-24
2022/04/02 06:18:26;;;;;;;9.90;5.20;;;;;;;3.51;86.41;96600.52;104675;1274;62050;-24
2022/04/02 06:20:57;;;;;;;6.30;3.20;;;;;;;4.01;84.83;96601.58;104809;1274;74654;-24
2022/04/02 06:23:26;;;;;;;2.20;1.40;;;;;;;3.93;84.18;96605.42;104704;1274;76003;-24
2022/04/02 06:25:57;;;;;;;4.90;3.50;;;;;;;3.94;84.65;96607.18;104907;1274;74506;-24
2022/04/02 06:28:26;;;;;;;2.50;1.90;;;;;;;3.77;85.73;96607.06;104954;1274;62410;-25
2022/04/02 06:30:56;;;;;;;2.10;1.40;;;;;;;3.78;86.30;96605.21;104840;1274;62303;-24
2022/04/02 06:33:27;;;;;;;1.50;1.20;;;;;;;4.14;85.32;96605.90;104854;1274;74831;-25
2022/04/02 06:35:56;;;;;;;1.70;0.80;;;;;;;4.15;83.57;96610.43;104682;1277;76071;-24
2022/04/02 06:38:26;;;;;;;3.40;1.60;;;;;;;4.05;83.99;96608.95;104885;1277;74429;-24
2022/04/02 06:40:55;;;;;;;4.60;3.50;;;;;;;3.83;85.24;96605.81;104579;1277;60962;-25
2022/04/02 06:43:31;;;;;;;1.10;0.80;;;;;;;3.71;86.18;96604.73;104828;1277;61383;-24
2022/04/02 06:46:05;;;;;;;6.10;3.30;;;;;;;3.61;87.16;96607.29;104666;1277;74557;-23
2022/04/02 06:48:39;;;;;;;4.00;2.30;;;;;;;4.16;85.15;96612.36;104623;1277;76007;-23
2022/04/02 06:51:10;;;;;;;4.00;1.90;;;;;;;4.34;83.54;96620.64;104559;1277;74568;-25
2022/04/02 06:53:40;;;;;;;5.10;2.70;;;;;;;4.21;84.04;96618.48;104596;1277;62091;-23
2022/04/02 06:56:09;;;;;;;3.20;2.00;;;;;;;4.04;84.96;96622.47;104738;1277;62283;-23
2022/04/02 06:58:41;;;;;;;2.60;1.30;;;;;;;3.77;85.52;96623.88;104672;1277;74802;-23
2022/04/02 07:01:11;;;;;;;1.00;0.60;;;;;;;3.93;85.53;96627.20;104765;1277;75546;-23
2022/04/02 07:03:43;;;;;;;4.50;1.90;;;;;;;4.19;84.10;96629.11;104607;1277;75418;-24
2022/04/02 07:06:12;;;;;;;8.10;3.50;;;;;;;4.33;84.01;96629.35;104603;1277;61995;-23
2022/04/02 07:08:44;;;;;;;1.80;0.80;;;;;;;3.94;84.29;96625.77;104555;1277;61092;-23
2022/04/02 07:11:33;;;;;;;1.60;0.90;;;;;;;3.73;85.58;96628.54;104513;1277;74918;-23
2022/04/02 07:14:06;;;;;;;1.30;0.90;;;;;;;3.65;85.93;96629.40;104382;1275;75992;-23
2022/04/02 07:16:57;;;;;;;0.60;0.50;;;;;;;4.03;84.88;96633.30;104535;1278;75789;-23
2022/04/02 07:19:29;;;;;;;0.60;0.50;;;;;;;4.42;84.05;96639.83;104661;1277;62380;-23
2022/04/02 07:21:58;;;;;;;1.40;0.80;;;;;;;4.26;83.72;96635.50;104403;1277;61017;-23
2022/04/02 07:24:29;;;;;;;1.70;0.80;;;;;;;4.19;83.70;96638.92;104701;1277;74726;-23
2022/04/02 07:26:59;;;;;;;0.50;0.30;;;;;;;3.94;84.35;96638.97;104624;1277;75063;-23
2022/04/02 07:29:32;;;;;;;0.30;0.30;;;;;;;3.96;84.08;96641.51;104285;1278;74806;-23
2022/04/02 07:32:01;;;;;;;0.60;0.40;;;;;;;4.33;83.06;96643.95;104304;1278;61910;-23
2022/04/02 07:34:35;;;;;;;0.90;0.50;;;;;;;3.97;83.72;96638.33;104659;1274;61045;-23
2022/04/02 07:37:44;;;;;;;1.40;0.90;;;;;;;3.75;85.30;96636.61;104617;1276;75158;-22
2022/04/02 07:40:22;;;;;;;1.60;0.80;;;;;;;3.59;86.29;96636.53;104750;1274;76164;-23
2022/04/02 07:43:10;;;;;;;1.40;0.60;;;;;;;3.78;86.52;96639.77;104300;1278;73335;-23
2022/04/02 07:45:45;;;;;;;0.80;0.60;;;;;;;4.30;83.66;96643.23;104522;1278;61124;-23
2022/04/02 07:48:17;;;;;;;1.90;0.70;;;;;;;4.29;82.19;96645.55;104322;1278;61720;-23
2022/04/02 07:50:46;;;;;;;1.60;0.60;;;;;;;4.02;84.04;96642.71;104685;1274;75089;-23
2022/04/02 07:53:21;;;;;;;1.30;0.60;;;;;;;4.05;83.87;96645.02;104711;1274;74758;-23
2022/04/02 07:55:55;;;;;;;1.80;1.20;;;;;;;3.93;84.50;96645.72;104625;1277;73360;-23
2022/04/02 07:58:27;;;;;;;1.20;0.80;;;;;;;3.89;84.59;96649.02;104291;1280;62664;-23
2022/04/02 08:01:04;;;;;;;0.90;0.50;;;;;;;4.31;82.39;96649.46;104323;1278;62132;-25
2022/04/02 08:03:37;;;;;;;0.40;0.40;;;;;;;4.60;81.37;96651.38;104328;1277;73802;-24
2022/04/02 08:06:07;;;;;;;1.00;0.70;;;;;;;4.36;82.79;96656.08;104668;1274;75996;-26
2022/04/02 08:08:58;;;;;;;0.70;0.50;;;;;;;3.78;84.90;96657.43;104579;1274;74591;-24
2022/04/02 08:11:27;;;;;;;1.10;0.70;;;;;;;3.79;84.81;96658.52;104313;1280;61262;-23
2022/04/02 08:14:05;;;;;;;1.70;0.80;;;;;;;3.83;85.05;96662.44;104636;1275;61191;-25
2022/04/02 08:16:42;;;;;;;0.30;0.30;;;;;;;4.33;82.63;96664.17;104472;1275;73435;-25
2022/04/02 08:19:14;;;;;;;0.80;0.50;;;;;;;4.25;82.04;96666.14;104662;1277;75989;-24
2022/04/02 08:21:43;;;;;;;0.60;0.50;;;;;;;4.10;82.80;96666.38;104670;1274;72443;-24
2022/04/02 08:24:12;;;;;;;0.70;0.50;;;;;;;4.07;83.06;96664.42;104650;1275;62172;-24
2022/04/02 08:27:03;;;;;;;0.60;0.50;;;;;;;3.69;83.92;96665.46;104675;1274;61129;-24
2022/04/02 08:29:51;;;;;;;0.50;0.50;;;;;;;3.99;83.94;96670.50;104687;1274;76209;-24
2022/04/02 08:32:35;;;;;;;4.00;0.50;;;;;;;4.26;82.14;96671.38;104652;1275;75962;-24
2022/04/02 08:35:09;;;;;;;0.40;0.40;;;;;;;4.47;81.91;96671.66;104536;1277;73172;-26
2022/04/02 08:38:03;;;;;;;0.50;0.50;;;;;;;4.35;82.42;96675.73;104302;1278;61156;-24
2022/04/02 08:41:09;;;;;;;0.50;0.40;;;;;;;4.00;83.90;96675.64;104428;1277;61709;-24
2022/04/02 08:44:19;;;;;;;0.80;0.50;;;;;;;4.08;83.74;96675.47;104608;1277;73928;-24
2022/04/02 08:47:00;;;;;;;0.60;0.50;;;;;;;4.05;82.14;96674.67;104613;1277;75887;-24
2022/04/02 08:49:36;;;;;;;0.50;0.50;;;;;;;4.26;82.50;96678.44;104373;1278;74180;-24
2022/04/02 08:52:14;;;;;;;0.60;0.60;;;;;;;4.14;83.45;96681.27;104504;1277;61118;-25
2022/04/02 08:55:07;;;;;;;1.30;0.70;;;;;;;3.83;83.59;96680.66;104370;1278;62140;-26
2022/04/02 08:57:55;;;;;;;0.60;0.60;;;;;;;3.89;84.92;96689.75;104629;1277;74751;-24
2022/04/02 09:00:27;;;;;;;0.70;0.50;;;;;;;4.14;82.74;96690.17;104651;1277;75065;-25
2022/04/02 09:03:28;;;;;;;0.40;0.40;;;;;;;4.13;82.92;96697.63;104420;1277;74343;-25
2022/04/02 09:06:23;;;;;;;0.60;0.60;;;;;;;4.08;83.94;96696.55;104599;1277;61144;-25
2022/04/02 09:09:08;;;;;;;0.50;0.50;;;;;;;3.73;84.61;96696.52;104581;1277;61063;-27
2022/04/02 09:12:05;;;;;;;0.50;0.40;;;;;;;3.87;85.10;96694.88;104634;1277;74810;-25
2022/04/02 09:15:14;;;;;;;1.00;0.70;;;;;;;4.13;83.42;96697.12;104401;1277;76078;-26
2022/04/02 09:18:13;;;;;;;0.80;0.60;;;;;;;4.20;83.58;96702.02;104356;1277;74354;-26
2022/04/02 09:20:54;;;;;;;2.00;1.00;;;;;;;4.08;83.20;96699.02;104454;1277;61144;-26
2022/04/02 09:23:43;;;;;;;0.50;0.50;;;;;;;3.85;85.44;96696.60;104408;1277;61179;-26
2022/04/02 09:27:00;;;;;;;1.10;0.60;;;;;;;4.13;84.53;96695.91;104669;1277;74698;-26
2022/04/02 09:29:52;;;;;;;0.90;0.50;;;;;;;4.33;83.96;96705.09;103865;1281;75998;-27
2022/04/02 09:32:22;;;;;;;1.20;0.80;;;;;;;4.41;83.96;96710.06;104400;1277;74267;-26
2022/04/02 09:35:10;;;;;;;0.70;0.70;;;;;;;3.99;84.38;96706.98;104568;1277;62494;-26
2022/04/02 09:38:16;;;;;;;0.50;0.50;;;;;;;3.83;83.99;96709.83;104594;1277;62019;-29
2022/04/02 09:40:48;;;;;;;0.50;0.50;;;;;;;4.32;83.11;96712.98;104491;1277;74787;-27
2022/04/02 09:43:30;;;;;;;0.50;0.50;;;;;;;4.58;81.28;96712.54;104352;1277;74759;-26
2022/04/02 09:46:23;;;;;;;0.70;0.60;;;;;;;4.61;81.17;96718.69;104367;1277;74634;-27
2022/04/02 09:49:01;;;;;;;0.50;0.50;;;;;;;4.09;83.26;96715.19;104481;1277;61487;-27
2022/04/02 09:51:32;;;;;;;1.10;0.70;;;;;;;4.21;83.49;96718.08;104423;1277;61864;-27
2022/04/02 09:54:04;;;;;;;1.10;0.70;;;;;;;4.32;82.17;96708.80;104380;1277;74491;-27
2022/04/02 09:56:37;;;;;;;0.90;0.50;;;;;;;4.83;80.72;96709.02;104618;1277;76033;-27
2022/04/02 09:59:33;;;;;;;0.70;0.50;;;;;;;5.00;79.42;96713.48;104565;1277;73868;-26
2022/04/02 10:02:04;;;;;;;1.10;0.60;;;;;;;4.75;81.44;96717.70;104401;1277;62215;-27
2022/04/02 10:05:01;;;;;;;1.10;0.80;;;;;;;4.53;81.86;96713.60;104291;1278;62116;-27
2022/04/02 10:08:01;;;;;;;0.60;0.50;;;;;;;4.33;83.69;96725.41;104406;1277;75574;-27
2022/04/02 10:10:50;;;;;;;0.60;0.60;;;;;;;4.11;84.16;96724.13;104481;1277;77117;-27
2022/04/02 10:13:29;;;;;;;3.10;0.80;;;;;;;4.33;83.64;96723.82;104290;1277;73343;-27
2022/04/02 10:16:07;;;;;;;1.40;0.50;;;;;;;4.45;83.68;96729.73;104376;1277;62144;-26
2022/04/02 10:18:36;;;;;;;1.00;0.80;;;;;;;4.14;84.16;96723.36;104372;1278;61805;-25
2022/04/02 10:21:06;;;;;;;0.70;0.60;;;;;;;4.01;84.92;96723.84;104610;1277;73548;-27
2022/04/02 10:23:37;;;;;;;1.70;0.70;;;;;;;4.50;83.67;96729.60;104656;1277;75415;-28
2022/04/02 10:26:14;;;;;;;1.00;0.80;;;;;;;4.81;81.60;96731.11;104320;1278;74432;-24
2022/04/02 10:28:54;;;;;;;0.60;0.50;;;;;;;4.42;82.86;96733.98;104444;1277;61134;-28
2022/04/02 10:31:47;;;;;;;1.60;0.70;;;;;;;4.24;84.10;96737.01;104406;1277;61122;-27
2022/04/02 10:34:29;;;;;;;;;;;;;;;4.05;85.97;96737.20;104665;1277;75546;-28
2022/04/02 10:37:09;;;;;;;1.00;0.50;;;;;;;4.65;82.94;96737.06;104640;1274;74789;-28
2022/04/02 10:40:00;;;;;;;0.50;0.40;;;;;;;5.19;80.93;96740.88;104609;1274;73472;-28
2022/04/02 10:42:37;;;;;;;3.30;0.80;;;;;;;4.92;79.98;96737.45;104552;1274;62625;-28
2022/04/02 10:45:17;;;;;;;0.40;0.40;;;;;;;4.70;80.82;96742.57;104402;1277;61058;-29
2022/04/02 10:48:11;;;;;;;1.00;0.70;;;;;;;4.60;81.37;96750.17;104498;1274;75634;-28
2022/04/02 10:50:43;;;;;;;0.80;0.80;;;;;;;4.69;80.76;96742.85;104525;1277;75812;-28
2022/04/02 10:53:13;;;;;;;0.90;0.70;;;;;;;4.85;80.26;96749.56;104648;1274;74419;-28
2022/04/02 10:55:48;;;;;;;1.20;0.90;;;;;;;4.85;79.92;96749.96;104551;1274;62161;-28
2022/04/02 10:58:20;;;;;;;0.80;0.80;;;;;;;4.58;80.19;96746.44;104455;1274;61168;-28
2022/04/02 11:00:49;;;;;;;1.70;0.90;;;;;;;4.33;80.22;96746.98;104427;1274;75519;-27
2022/04/02 11:03:36;;;;;;;0.70;0.60;;;;;;;4.46;81.15;96756.13;104363;1274;76004;-27
2022/04/02 11:06:08;;;;;;;1.10;0.70;;;;;;;4.71;79.05;96754.67;104419;1277;73823;-27
2022/04/02 11:08:37;;;;;;;1.30;0.80;;;;;;;4.50;79.28;96760.26;104351;1277;61048;-27
2022/04/02 11:11:24;;;;;;;2.60;1.10;;;;;;;4.50;79.62;96753.55;104623;1274;61925;-27
2022/04/02 11:14:01;;;;;;;1.20;1.00;;;;;;;4.27;80.58;96757.57;104391;1274;75399;-27
2022/04/02 11:16:40;;;;;;;1.70;0.90;;;;;;;4.07;81.39;96760.04;104389;1274;73779;-27
2022/04/02 11:22:08;;;;;;;1.40;1.00;;;;;;;4.30;79.84;96755.35;104468;1274;61143;-27
2022/04/02 11:25:03;;;;;;;2.30;1.20;;;;;;;4.18;80.52;96764.92;104403;1277;61181;-27
2022/04/02 11:27:36;;;;;;;2.10;1.00;;;;;;;4.22;81.67;96770.16;104577;1275;75630;-27
2022/04/02 11:30:13;;;;;;;1.30;1.10;;;;;;;3.97;83.09;96771.11;104519;1274;74988;-27
2022/04/02 11:32:50;;;;;;;1.50;1.10;;;;;;;3.97;81.92;96772.98;104476;1277;74646;-27
2022/04/02 11:35:24;;;;;;;3.10;1.30;;;;;;;4.10;80.33;96767.48;104970;1272;61127;-27
2022/04/02 11:38:10;;;;;;;3.60;1.30;;;;;;;3.96;81.01;96773.19;104702;1274;61010;-27
2022/04/02 11:40:42;;;;;;;1.80;1.40;;;;;;;3.86;81.18;96774.25;104725;1271;74336;-28
2022/04/02 11:43:11;;;;;;;1.30;1.10;;;;;;;3.59;81.01;96772.38;104486;1274;75069;-28
2022/04/02 11:45:41;;;;;;;1.30;1.10;;;;;;;3.86;81.36;96773.08;104784;1272;74250;-28
2022/04/02 11:48:12;;;;;;;2.20;1.20;;;;;;;4.36;79.06;96780.63;104509;1275;62065;-27
2022/04/02 11:50:43;;;;;;;2.40;1.60;;;;;;;4.33;78.92;96775.55;104774;1274;61230;-26
2022/04/02 11:53:13;;;;;;;1.70;1.00;;;;;;;4.08;79.70;96779.04;104790;1274;75543;-28
2022/04/02 11:55:43;;;;;;;1.20;1.10;;;;;;;3.89;80.60;96778.95;104908;1274;75986;-27
2022/04/02 11:58:13;;;;;;;1.30;1.00;;;;;;;3.81;80.33;96779.51;104912;1274;74245;-27
2022/04/02 12:00:44;;;;;;;1.00;0.80;;;;;;;4.06;80.33;96779.16;104791;1274;62156;-28
2022/04/02 12:03:21;;;;;;;2.70;1.30;;;;;;;4.37;78.50;96783.95;104744;1271;61459;-27
2022/04/02 12:05:54;;;;;;;2.30;1.10;;;;;;;4.18;78.22;96773.67;104727;1274;75131;-28
2022/04/02 12:08:31;;;;;;;2.00;1.20;;;;;;;4.02;78.59;96782.25;104769;1274;75837;-28
2022/04/02 12:11:02;;;;;;;1.80;1.30;;;;;;;3.83;80.83;96793.27;104820;1273;74486;-27
2022/04/02 12:13:32;;;;;;;1.60;1.30;;;;;;;3.90;79.37;96792.48;104753;1274;62972;-28
2022/04/02 12:16:09;;;;;;;2.50;1.30;;;;;;;4.13;78.07;96793.54;104820;1271;61143;-28
2022/04/02 12:18:59;;;;;;;1.40;1.10;;;;;;;4.10;77.66;96792.59;104651;1275;75864;-27
2022/04/02 12:21:37;;;;;;;3.20;1.50;;;;;;;3.92;78.74;96794.67;104770;1274;76312;-27